Peotone Weather

Nearby METAR Reports

 

KIGQ - Lansing, Illinois, USA
Distance from station: NE 19mi, 30km
Updated: Wed, 18-May-2022 2:35pm CDT
Overcast
Overcast
 Wind from WSW
Wind: WSW 7 mph , 11 km/h
Temperature: 63°F , 17°C
Dew Point: 63°F , 17°C
Humidity: 100%
Barometer: 29.76 inHg , 1007.8 hPa
Clouds: Overcast
Visibility: 10 miles , 16 km
Cloud details: Overcast 600 ft
2022/05/18 19:35 KIGQ 181935Z AUTO 24006KT 10SM OVC006 17/17 A2976 RMK AO2 T01670167
KIKK - Kankakee, Illinois, USA
Distance from station: S 19mi, 30km
Updated: Wed, 18-May-2022 2:36pm CDT
Light drizzle, Overcast
Light drizzle, Overcast
 Wind from SSW
Wind: SSW 9 mph , 15 km/h
Temperature: 66°F , 19°C
Dew Point: 64°F , 18°C
Humidity: 94%
Barometer: 29.76 inHg , 1007.8 hPa
Summary: Light Drizzle
Clouds: Overcast
Visibility: 10 miles , 16 km
Cloud details: Mostly cloudy 1400 ft
Overcast 2200 ft
2022/05/18 19:36 KIKK 181936Z AUTO 20008KT 10SM -DZ BKN014 OVC022 19/18 A2976 RMK AO2
 
KSJC - Joliet, Illinois, USA
Distance from station: WNW 24mi, 38km
Updated: Wed, 18-May-2022 1:53pm CDT
NOT Current
Partly cloudy
Partly cloudy
 Wind from N
Wind: N 9 mph , 15 km/h
Temperature: 75°F , 24°C
Dew Point: 41°F , 5°C
Humidity: 29%
Barometer: 30.07 inHg , 1018.3 hPa
Clouds: Partly cloudy
Visibility: 9 miles , 14 km
Cloud details: Few Clouds 7000 ft
Partly cloudy 11000 ft
Partly cloudy 15000 ft
2022/05/18 18:53 KSJC 181853Z 35008KT 9SM FEW070 SCT110 SCT150 24/05 A3007 RMK AO2 SLP182 T02440050
KLOT - Romeoville, Illinois, USA
Distance from station: NW 26mi, 41km
Updated: Wed, 18-May-2022 2:35pm CDT
Overcast
Overcast
 Wind from calm
Wind: Calm
Temperature: 63°F , 17°C
Dew Point: 63°F , 17°C
Humidity: 100%
Barometer: 29.77 inHg , 1008.1 hPa
Clouds: Overcast
Visibility: 7 miles , 11 km
Cloud details: Overcast 700 ft
2022/05/18 19:35 KLOT 181935Z AUTO 00000KT 7SM OVC007 17/17 A2977 RMK AO2 T01700168
 
KMDW - Midway Airport Chicago, Illinois, USA
Distance from station: N 31mi, 50km
Updated: Wed, 18-May-2022 1:53pm CDT
NOT Current
Mist, Overcast
Mist, Overcast
 Wind from NE
Wind: NE 5 mph , 7 km/h
Temperature: 59°F , 15°C
Dew Point: 54°F , 12°C
Humidity: 82%
Barometer: 29.77 inHg , 1008.1 hPa
Summary: Mist
Clouds: Overcast
Visibility: 6 miles , 10 km
Cloud details: Overcast 600 ft
2022/05/18 18:53 KMDW 181853Z 04004KT 6SM BR OVC006 15/12 A2977 RMK AO2 RAE50 SLP080 P0000 T01500122
KC09 - Morris, Illinois, USA
Distance from station: W 34mi, 54km
Updated: Wed, 18-May-2022 2:35pm CDT
Overcast
Overcast
 Wind from calm
Wind: Calm
Temperature: 63°F , 17°C
Dew Point: 63°F , 17°C
Humidity: 100%
Barometer: 29.76 inHg , 1007.8 hPa
Clouds: Overcast
Visibility: 7 miles , 11 km
Cloud details: Mostly cloudy 600 ft
Overcast 1400 ft
2022/05/18 19:35 KC09 181935Z AUTO 00000KT 7SM BKN006 OVC014 17/17 A2976 RMK AO2 T01700170

Metar display script from Saratoga-Weather.org